Time;durP1;ratioP1;P1;durP2;ratioP2;P2;SDS_P1;SDS_P2;PMS_P1;PMS_P2;Temp;Humidity;BMP_temperature;BMP_pressure;BME280_temperature;BME280_humidity;BME280_pressure;Samples;Min_cycle;Max_cycle;Signal;HPM_P1;HPM_P2
2022/06/03 00:02:31;;;;;;;2.10;1.80;;;22.00;56.90;;;;;;4964408;28;20070;-18
2022/06/03 00:05:17;;;;;;;2.00;1.90;;;22.00;57.00;;;;;;4975871;28;20205;-18
2022/06/03 00:08:03;;;;;;;2.15;2.00;;;22.00;57.10;;;;;;4972295;28;20408;-18
2022/06/03 00:11:03;;;;;;;2.00;1.80;;;21.90;57.40;;;;;;4973463;28;20058;-18
2022/06/03 00:14:23;;;;;;;2.38;1.80;;;21.90;57.40;;;;;;4956269;28;20588;-18
2022/06/03 00:17:12;;;;;;;1.80;1.70;;;21.90;57.40;;;;;;4952834;28;20234;-18
2022/06/03 00:19:49;;;;;;;1.98;1.88;;;21.90;57.50;;;;;;4938887;29;20062;-17
2022/06/03 00:22:52;;;;;;;1.85;1.75;;;21.90;57.50;;;;;;4963690;28;20045;-18
2022/06/03 00:25:51;;;;;;;1.40;1.40;;;21.90;57.70;;;;;;4974126;28;20090;-18
2022/06/03 00:28:42;;;;;;;2.95;2.10;;;21.90;57.70;;;;;;4987645;28;20087;-19
2022/06/03 00:31:20;;;;;;;1.50;1.40;;;21.80;57.70;;;;;;4972497;28;20047;-18
2022/06/03 00:34:06;;;;;;;1.48;1.38;;;21.80;57.60;;;;;;4975480;28;20051;-18
2022/06/03 00:36:51;;;;;;;1.77;1.50;;;21.80;57.80;;;;;;4974909;28;20046;-18
2022/06/03 00:39:36;;;;;;;6.25;1.60;;;21.80;57.80;;;;;;5002051;28;20046;-19
2022/06/03 00:42:23;;;;;;;;;;;21.80;57.90;;;;;;4977951;28;20400;-18
2022/06/03 00:45:20;;;;;;;1.92;1.67;;;21.80;57.80;;;;;;4969386;28;19914;-18
2022/06/03 00:48:10;;;;;;;2.00;1.90;;;21.80;57.90;;;;;;4977073;28;20074;-19
2022/06/03 00:50:48;;;;;;;1.80;1.70;;;21.70;57.90;;;;;;4959789;28;20043;-18
2022/06/03 00:53:29;;;;;;;1.67;1.58;;;21.70;58.00;;;;;;4979330;28;20054;-18
2022/06/03 00:56:03;;;;;;;1.50;1.40;;;21.70;58.10;;;;;;4978868;28;20159;-18
2022/06/03 00:58:39;;;;;;;1.58;1.48;;;21.70;58.00;;;;;;4976212;28;20075;-18
2022/06/03 01:01:15;;;;;;;1.80;1.70;;;21.70;57.90;;;;;;4978043;28;20074;-18
2022/06/03 01:04:00;;;;;;;1.85;1.60;;;21.70;57.90;;;;;;4977475;28;20039;-19
2022/06/03 01:06:40;;;;;;;1.40;1.30;;;21.80;57.90;;;;;;4976458;28;20039;-18
2022/06/03 01:09:43;;;;;;;1.65;1.55;;;21.80;57.80;;;;;;4978226;28;20034;-19
2022/06/03 01:12:33;;;;;;;1.50;1.40;;;21.70;57.90;;;;;;4978726;28;20051;-18
2022/06/03 01:15:06;;;;;;;1.70;1.60;;;21.70;57.90;;;;;;4976383;28;20035;-18
2022/06/03 01:17:55;;;;;;;1.58;1.48;;;21.70;57.90;;;;;;4957743;28;20416;-19
2022/06/03 01:20:30;;;;;;;1.73;1.63;;;21.70;58.00;;;;;;4967413;28;20042;-18
2022/06/03 01:23:13;;;;;;;1.27;1.17;;;21.70;58.00;;;;;;4969816;28;20058;-17
2022/06/03 01:25:59;;;;;;;2.15;1.30;;;21.70;58.00;;;;;;4977564;28;20328;-18
2022/06/03 01:28:58;;;;;;;1.38;1.27;;;21.70;57.90;;;;;;4976056;28;20038;-18
2022/06/03 01:31:57;;;;;;;1.38;1.27;;;21.80;58.00;;;;;;4959190;28;20421;-18
2022/06/03 01:34:40;;;;;;;1.70;1.60;;;21.80;57.90;;;;;;4977051;28;20078;-19
2022/06/03 01:37:24;;;;;;;1.40;1.40;;;21.80;57.80;;;;;;4975077;28;20118;-18
2022/06/03 01:39:53;;;;;;;;;;;21.70;57.80;;;;;;4961397;28;20043;-18
2022/06/03 01:42:44;;;;;;;1.20;1.20;;;21.70;57.80;;;;;;4978670;28;20307;-17
2022/06/03 01:45:22;;;;;;;1.42;1.33;;;21.70;57.90;;;;;;4971993;28;20403;-18
2022/06/03 01:48:02;;;;;;;1.27;1.27;;;21.70;57.80;;;;;;4976471;28;20129;-18
2022/06/03 01:50:48;;;;;;;1.58;1.50;;;21.70;57.90;;;;;;4976274;28;20051;-18
2022/06/03 01:53:19;;;;;;;1.50;1.40;;;21.70;57.90;;;;;;4959536;28;20046;-18
2022/06/03 01:56:13;;;;;;;1.60;1.50;;;21.70;58.00;;;;;;4972565;28;20054;-18
2022/06/03 01:58:54;;;;;;;1.40;1.30;;;21.70;58.00;;;;;;4972893;28;20047;-17
2022/06/03 02:01:27;;;;;;;1.40;1.40;;;21.70;58.00;;;;;;4969296;28;20545;-19
2022/06/03 02:04:10;;;;;;;1.40;1.30;;;21.70;57.90;;;;;;4977301;28;20058;-18
2022/06/03 02:07:26;;;;;;;1.20;1.20;;;21.70;57.90;;;;;;4972540;28;20039;-18
2022/06/03 02:10:32;;;;;;;1.35;1.30;;;21.70;57.90;;;;;;4965807;28;20404;-19
2022/06/03 02:13:22;;;;;;;1.30;1.30;;;21.70;57.90;;;;;;4974200;28;20138;-18
2022/06/03 02:16:01;;;;;;;1.50;1.40;;;21.80;57.90;;;;;;4977753;28;20046;-18
2022/06/03 02:19:08;;;;;;;1.38;1.27;;;21.70;58.00;;;;;;4976002;28;20054;-18
2022/06/03 02:21:52;;;;;;;1.70;1.27;;;21.70;57.80;;;;;;4959954;28;20043;-18
2022/06/03 02:24:39;;;;;;;1.00;1.00;;;21.70;58.00;;;;;;4993821;28;20062;-17
2022/06/03 02:27:31;;;;;;;1.10;1.10;;;21.70;57.90;;;;;;4976676;28;20043;-18
2022/06/03 02:30:25;;;;;;;1.05;1.05;;;21.70;57.90;;;;;;4976933;28;20054;-18
2022/06/03 02:33:06;;;;;;;1.50;1.40;;;21.70;57.90;;;;;;4975875;28;20046;-18
2022/06/03 02:35:37;;;;;;;1.48;1.38;;;21.70;58.00;;;;;;4977138;28;20407;-18
2022/06/03 02:38:25;;;;;;;1.58;1.48;;;21.70;58.00;;;;;;4976189;28;20042;-18
2022/06/03 02:41:32;;;;;;;1.08;1.02;;;21.70;58.00;;;;;;4967674;28;20053;-17
2022/06/03 02:44:21;;;;;;;1.17;1.17;;;21.70;57.90;;;;;;4966957;28;20053;-18
2022/06/03 02:47:05;;;;;;;1.45;1.38;;;21.70;57.90;;;;;;4968456;28;20573;-18
2022/06/03 02:49:34;;;;;;;1.08;1.05;;;21.70;58.00;;;;;;4963575;28;20563;-17
2022/06/03 02:52:28;;;;;;;1.40;1.35;;;21.70;58.00;;;;;;4977333;28;20083;-17
2022/06/03 02:55:09;;;;;;;1.27;1.27;;;21.70;58.10;;;;;;4975921;28;20124;-18
2022/06/03 02:57:44;;;;;;;1.27;1.20;;;21.70;58.00;;;;;;4995866;28;20043;-18
2022/06/03 03:00:12;;;;;;;1.00;1.00;;;21.70;58.10;;;;;;4975901;28;20051;-17
2022/06/03 03:02:52;;;;;;;1.10;1.10;;;21.70;57.90;;;;;;4976172;28;20070;-17
2022/06/03 03:05:52;;;;;;;1.40;1.33;;;21.70;57.90;;;;;;4975033;28;20051;-18
2022/06/03 03:08:45;;;;;;;0.98;0.90;;;21.70;58.00;;;;;;4976503;28;20526;-18
2022/06/03 03:11:22;;;;;;;1.13;1.13;;;21.70;58.10;;;;;;4966953;28;20051;-17
2022/06/03 03:14:25;;;;;;;1.30;1.20;;;21.70;58.10;;;;;;4957173;28;20050;-19
2022/06/03 03:17:21;;;;;;;1.02;1.00;;;21.70;58.10;;;;;;4956927;28;20102;-17
2022/06/03 03:20:09;;;;;;;1.38;1.27;;;21.70;58.10;;;;;;4973411;28;20043;-18
2022/06/03 03:22:57;;;;;;;1.40;1.30;;;21.60;58.10;;;;;;4975037;28;20050;-18
2022/06/03 03:25:53;;;;;;;1.17;1.15;;;21.60;58.10;;;;;;4974433;28;20657;-17
2022/06/03 03:28:38;;;;;;;1.50;1.20;;;21.60;58.10;;;;;;4969468;28;20047;-18
2022/06/03 03:31:19;;;;;;;0.90;0.90;;;21.60;58.10;;;;;;4969903;28;20114;-18
2022/06/03 03:34:15;;;;;;;1.02;1.02;;;21.70;58.10;;;;;;4970564;28;20112;-18
2022/06/03 03:36:59;;;;;;;1.38;1.27;;;21.60;58.10;;;;;;4987787;28;20077;-18
2022/06/03 03:39:27;;;;;;;1.40;1.40;;;21.60;58.10;;;;;;4964193;28;20070;-18
2022/06/03 03:42:21;;;;;;;0.90;0.90;;;21.60;58.10;;;;;;4973309;28;20134;-18
2022/06/03 03:45:07;;;;;;;1.17;1.17;;;21.60;58.10;;;;;;4965090;28;20045;-18
2022/06/03 03:47:45;;;;;;;1.15;1.15;;;21.60;58.10;;;;;;4975096;28;20039;-18
2022/06/03 03:50:33;;;;;;;1.00;1.00;;;21.70;58.10;;;;;;4976419;28;20049;-18
2022/06/03 03:53:10;;;;;;;1.02;0.93;;;21.60;58.00;;;;;;4973731;28;20178;-17
2022/06/03 03:55:45;;;;;;;0.90;0.90;;;21.60;58.00;;;;;;4973293;28;20054;-18
2022/06/03 03:58:29;;;;;;;1.00;1.00;;;21.60;58.10;;;;;;4975573;28;20061;-18
2022/06/03 04:01:32;;;;;;;1.00;1.00;;;21.60;58.10;;;;;;4974573;28;20500;-18
2022/06/03 04:04:19;;;;;;;1.10;1.10;;;21.70;58.10;;;;;;4975687;28;20046;-18
2022/06/03 04:07:42;;;;;;;2.80;1.27;;;21.60;58.10;;;;;;4975361;28;20528;-18
2022/06/03 04:10:20;;;;;;;0.90;0.90;;;21.60;58.10;;;;;;4956341;28;20055;-19
2022/06/03 04:13:16;;;;;;;1.27;1.20;;;21.60;58.20;;;;;;4957688;28;20036;-17
2022/06/03 04:16:05;;;;;;;0.98;0.98;;;21.60;58.20;;;;;;4980734;28;20407;-18
2022/06/03 04:18:46;;;;;;;1.00;1.00;;;21.60;58.20;;;;;;4966021;28;20039;-18
2022/06/03 04:21:24;;;;;;;0.85;0.85;;;21.60;58.20;;;;;;4980421;28;20482;-18
2022/06/03 04:24:05;;;;;;;0.88;0.88;;;21.60;58.30;;;;;;4979218;28;20047;-18
2022/06/03 04:26:51;;;;;;;1.00;1.00;;;21.60;58.10;;;;;;4979194;28;20060;-18
2022/06/03 04:29:35;;;;;;;0.93;0.93;;;21.60;58.10;;;;;;4979681;28;20530;-18
2022/06/03 04:32:04;;;;;;;1.10;0.88;;;21.60;58.10;;;;;;4963984;28;20459;-18
2022/06/03 04:35:05;;;;;;;1.23;1.17;;;21.60;58.10;;;;;;4978555;28;20043;-18
2022/06/03 04:37:58;;;;;;;0.88;0.88;;;21.60;58.10;;;;;;4978261;28;20119;-18
2022/06/03 04:40:42;;;;;;;0.70;0.70;;;21.60;58.10;;;;;;4978356;28;20507;-17
2022/06/03 04:43:30;;;;;;;0.80;0.80;;;21.60;58.10;;;;;;4961256;28;20078;-18
2022/06/03 04:46:05;;;;;;;0.90;0.90;;;21.60;58.00;;;;;;4971386;28;20097;-18
2022/06/03 04:49:04;;;;;;;1.02;0.90;;;21.60;57.90;;;;;;4978956;28;20035;-18
2022/06/03 04:52:10;;;;;;;0.95;0.95;;;21.60;57.90;;;;;;4966697;28;20050;-19
2022/06/03 04:55:07;;;;;;;1.20;1.20;;;21.70;57.90;;;;;;4939367;28;20047;-18
2022/06/03 04:58:00;;;;;;;1.10;1.10;;;21.60;57.90;;;;;;4971251;28;20047;-17
2022/06/03 05:00:43;;;;;;;0.80;0.80;;;21.60;58.00;;;;;;4960157;28;20124;-18
2022/06/03 05:03:47;;;;;;;0.93;0.93;;;21.60;58.00;;;;;;4966873;28;20050;-18
2022/06/03 05:06:42;;;;;;;1.10;1.10;;;21.60;58.00;;;;;;4977829;28;20049;-18
2022/06/03 05:09:20;;;;;;;1.00;0.88;;;21.60;58.10;;;;;;4974763;28;20459;-17
2022/06/03 05:12:21;;;;;;;1.00;1.00;;;21.50;58.20;;;;;;4971962;28;20098;-18
2022/06/03 05:15:16;;;;;;;0.95;0.90;;;21.50;58.10;;;;;;4976632;28;20047;-18
2022/06/03 05:17:48;;;;;;;1.20;0.80;;;21.40;58.40;;;;;;4960928;28;20039;-18
2022/06/03 05:20:29;;;;;;;0.55;0.55;;;21.40;58.60;;;;;;4959857;28;20050;-18
2022/06/03 05:22:55;;;;;;;2.13;1.00;;;21.50;58.50;;;;;;4994297;28;20050;-17
2022/06/03 05:25:31;;;;;;;0.90;0.90;;;21.50;58.40;;;;;;4624831;28;10000375;-21
2022/06/03 05:28:19;;;;;;;1.08;0.85;;;21.40;58.40;;;;;;4969549;28;20428;-20
2022/06/03 05:31:09;;;;;;;0.70;0.70;;;21.40;58.50;;;;;;4970982;28;20612;-20
2022/06/03 05:33:34;;;;;;;0.60;0.60;;;21.40;58.60;;;;;;4971195;28;20485;-20
2022/06/03 05:36:25;;;;;;;1.00;1.00;;;21.40;58.50;;;;;;4973991;28;20074;-21
2022/06/03 05:39:15;;;;;;;1.13;0.68;;;21.40;58.60;;;;;;4972304;28;20050;-20
2022/06/03 05:42:27;;;;;;;1.33;0.82;;;21.40;58.60;;;;;;4970489;28;20142;-20
2022/06/03 05:45:04;;;;;;;0.85;0.70;;;21.40;58.70;;;;;;4970790;28;20042;-21
2022/06/03 05:47:41;;;;;;;0.63;0.63;;;21.40;58.70;;;;;;4967803;28;20046;-20
2022/06/03 05:50:12;;;;;;;0.57;0.57;;;21.40;58.60;;;;;;4963185;28;20047;-20
2022/06/03 05:53:08;;;;;;;0.75;0.75;;;21.40;58.60;;;;;;4967950;28;20109;-21
2022/06/03 05:55:46;;;;;;;2.25;0.73;;;21.50;58.60;;;;;;4955271;28;20098;-20
2022/06/03 05:58:33;;;;;;;0.77;0.77;;;21.50;58.40;;;;;;4972064;28;20054;-18
2022/06/03 06:01:39;;;;;;;0.80;0.80;;;21.50;58.50;;;;;;4973966;28;20106;-19
2022/06/03 06:04:23;;;;;;;1.08;0.70;;;21.60;58.50;;;;;;4945247;28;20047;-19
2022/06/03 06:07:07;;;;;;;;;;;21.60;58.80;;;;;;4967548;28;20214;-18
2022/06/03 06:10:17;;;;;;;1.25;0.70;;;21.60;58.80;;;;;;4977712;28;19978;-18
2022/06/03 06:13:07;;;;;;;1.60;0.57;;;21.40;59.40;;;;;;4960905;28;20054;-18
2022/06/03 06:15:59;;;;;;;0.75;0.75;;;21.40;59.10;;;;;;4971663;28;20054;-18
2022/06/03 06:18:33;;;;;;;0.80;0.80;;;21.40;58.80;;;;;;4980332;28;20065;-18
2022/06/03 06:21:16;;;;;;;0.85;0.70;;;21.40;59.10;;;;;;4976245;28;20106;-18
2022/06/03 06:24:04;;;;;;;2.63;0.97;;;21.50;58.80;;;;;;4976265;28;20062;-18
2022/06/03 06:26:45;;;;;;;1.10;1.00;;;21.50;59.30;;;;;;4972143;28;20138;-19
2022/06/03 06:29:16;;;;;;;1.58;0.90;;;21.50;58.30;;;;;;4975506;28;20047;-18
2022/06/03 06:32:07;;;;;;;1.88;0.70;;;21.40;58.30;;;;;;4974822;28;20095;-19
2022/06/03 06:34:54;;;;;;;0.90;0.73;;;21.40;57.80;;;;;;4983719;28;20047;-17
2022/06/03 06:37:41;;;;;;;2.08;1.20;;;21.40;57.70;;;;;;4970761;28;20034;-18
2022/06/03 06:40:20;;;;;;;8.05;1.00;;;21.50;58.40;;;;;;4974697;28;20110;-18
2022/06/03 06:42:51;;;;;;;4.55;1.02;;;21.60;58.60;;;;;;4969349;28;20062;-19
2022/06/03 06:45:27;;;;;;;1.02;0.98;;;21.60;58.60;;;;;;4976410;28;20038;-17
2022/06/03 06:48:05;;;;;;;1.23;1.10;;;21.60;58.70;;;;;;4966860;28;20085;-17
2022/06/03 06:50:56;;;;;;;1.33;0.90;;;21.50;58.90;;;;;;5000561;28;20042;-18
2022/06/03 06:53:47;;;;;;;3.22;0.90;;;21.50;59.30;;;;;;4974544;28;20050;-17
2022/06/03 06:56:39;;;;;;;2.80;0.82;;;21.50;59.20;;;;;;4988426;28;20121;-18
2022/06/03 06:59:14;;;;;;;1.00;0.75;;;21.50;59.20;;;;;;4975465;28;20053;-18
2022/06/03 07:01:43;;;;;;;1.35;0.95;;;21.50;59.30;;;;;;4973890;28;20042;-18
2022/06/03 07:04:14;;;;;;;0.70;0.70;;;21.50;59.00;;;;;;4976468;28;20077;-19
2022/06/03 07:06:43;;;;;;;0.98;0.93;;;21.50;59.30;;;;;;4971511;28;20580;-18
2022/06/03 07:09:11;;;;;;;1.58;0.88;;;21.50;59.10;;;;;;4975614;28;20101;-17
2022/06/03 07:12:01;;;;;;;1.10;1.02;;;21.50;59.20;;;;;;4975782;28;20122;-17
2022/06/03 07:14:33;;;;;;;0.73;0.73;;;21.50;59.10;;;;;;4968682;28;20079;-18
2022/06/03 07:20:43;;;;;;;1.33;0.77;;;21.60;59.20;;;;;;4973154;28;20048;-19
2022/06/03 07:23:11;;;;;;;1.02;0.70;;;21.50;58.80;;;;;;4972483;28;20069;-17
2022/06/03 07:25:44;;;;;;;1.92;0.85;;;21.60;59.20;;;;;;4979682;28;20570;-18
2022/06/03 07:28:32;;;;;;;0.73;0.70;;;21.60;59.30;;;;;;4973284;28;20057;-17
2022/06/03 07:31:15;;;;;;;1.00;0.90;;;21.60;59.10;;;;;;4975890;28;20054;-18
2022/06/03 07:34:07;;;;;;;2.70;0.82;;;21.60;59.20;;;;;;4973015;28;20578;-17
2022/06/03 07:36:39;;;;;;;0.70;0.70;;;21.60;59.20;;;;;;4970193;28;20130;-18
2022/06/03 07:39:26;;;;;;;2.05;0.60;;;21.60;59.00;;;;;;4974031;28;20038;-18
2022/06/03 07:42:12;;;;;;;2.92;0.90;;;21.60;59.30;;;;;;4976149;28;20105;-18
2022/06/03 07:44:53;;;;;;;0.68;0.65;;;21.60;59.50;;;;;;4969375;28;20035;-18
2022/06/03 07:47:19;;;;;;;1.35;0.98;;;21.60;59.30;;;;;;4942305;28;20051;-17
2022/06/03 07:49:56;;;;;;;0.52;0.52;;;21.60;59.20;;;;;;4971941;28;20427;-17
2022/06/03 07:52:24;;;;;;;0.80;0.80;;;21.60;59.70;;;;;;4973112;28;20117;-17
2022/06/03 07:54:52;;;;;;;0.85;0.80;;;21.60;59.60;;;;;;4974181;28;20101;-19
2022/06/03 07:57:19;;;;;;;0.85;0.85;;;21.60;59.20;;;;;;4975206;28;20046;-18
2022/06/03 07:59:45;;;;;;;0.77;0.63;;;21.60;59.20;;;;;;4990557;28;20039;-18
2022/06/03 08:02:18;;;;;;;0.70;0.60;;;21.60;59.30;;;;;;4970921;28;20051;-17
2022/06/03 08:04:46;;;;;;;1.20;0.50;;;21.70;59.40;;;;;;4966010;28;20042;-18
2022/06/03 08:12:59;;;;;;;1.02;0.88;;;21.70;59.50;;;;;;4973896;28;20082;-18
2022/06/03 08:15:29;;;;;;;0.70;0.70;;;21.70;59.70;;;;;;4973875;28;20505;-19
2022/06/03 08:17:54;;;;;;;1.23;0.88;;;21.70;59.60;;;;;;4975564;28;20496;-18
2022/06/03 08:20:21;;;;;;;1.52;0.95;;;21.60;59.40;;;;;;4968103;28;20413;-18
2022/06/03 08:22:47;;;;;;;1.27;0.70;;;21.60;59.20;;;;;;4975068;28;20119;-18
2022/06/03 08:25:19;;;;;;;0.85;0.60;;;21.60;59.40;;;;;;4974173;28;20063;-18
2022/06/03 08:27:44;;;;;;;0.50;0.50;;;21.60;59.50;;;;;;4973685;28;20108;-17
2022/06/03 08:30:17;;;;;;;0.93;0.75;;;21.60;59.40;;;;;;4974270;28;20118;-18
2022/06/03 08:33:10;;;;;;;0.75;0.47;;;21.60;59.30;;;;;;4990071;28;20043;-18
2022/06/03 08:35:37;;;;;;;0.68;0.68;;;21.60;59.30;;;;;;4975167;28;20043;-18
2022/06/03 08:38:23;;;;;;;1.85;0.60;;;21.60;59.30;;;;;;4972459;28;20127;-17
2022/06/03 08:41:04;;;;;;;0.80;0.80;;;21.60;59.40;;;;;;4974842;28;20073;-17
2022/06/03 08:43:40;;;;;;;0.70;0.60;;;21.60;59.50;;;;;;4989843;28;20047;-18
2022/06/03 08:46:14;;;;;;;0.52;0.52;;;21.60;59.40;;;;;;4972720;28;31102;-18
2022/06/03 08:48:42;;;;;;;0.80;0.80;;;21.70;59.40;;;;;;4974782;28;20109;-17
2022/06/03 08:51:22;;;;;;;0.60;0.60;;;21.60;59.30;;;;;;4973264;28;20051;-18
2022/06/03 08:53:59;;;;;;;0.90;0.60;;;21.60;59.40;;;;;;4973489;28;20042;-18
2022/06/03 08:56:29;;;;;;;0.75;0.70;;;21.60;59.60;;;;;;4969509;28;20051;-18
2022/06/03 08:58:56;;;;;;;0.60;0.60;;;21.60;59.50;;;;;;4977577;28;20488;-18
2022/06/03 09:01:43;;;;;;;0.85;0.70;;;21.60;59.80;;;;;;4993059;28;20058;-18
2022/06/03 09:04:21;;;;;;;3.70;0.70;;;21.60;59.70;;;;;;4977607;28;20046;-19
2022/06/03 09:07:09;;;;;;;0.50;0.50;;;21.60;59.70;;;;;;4979093;28;20038;-17
2022/06/03 09:10:31;;;;;;;0.70;0.60;;;21.60;59.80;;;;;;4975785;28;20031;-17
2022/06/03 09:13:09;;;;;;;0.80;0.80;;;21.70;59.80;;;;;;4979148;28;20066;-18
2022/06/03 09:15:38;;;;;;;0.82;0.70;;;21.60;59.80;;;;;;4979286;28;20526;-18
2022/06/03 09:18:05;;;;;;;1.70;0.65;;;21.70;59.80;;;;;;4972877;28;20071;-18
2022/06/03 09:20:34;;;;;;;0.73;0.70;;;21.70;59.80;;;;;;4976794;28;20125;-18
2022/06/03 09:23:04;;;;;;;0.50;0.50;;;21.70;59.80;;;;;;4976015;28;20467;-18
2022/06/03 09:25:31;;;;;;;0.80;0.80;;;21.70;60.00;;;;;;4977595;28;20585;-18
2022/06/03 09:27:57;;;;;;;0.70;0.70;;;21.70;60.00;;;;;;4977218;28;20049;-18
2022/06/03 09:30:29;;;;;;;1.40;0.73;;;21.70;60.00;;;;;;4977272;28;20130;-19
2022/06/03 09:32:55;;;;;;;1.50;0.50;;;21.70;60.30;;;;;;4974079;28;20086;-19
2022/06/03 09:35:21;;;;;;;0.70;0.70;;;21.60;60.10;;;;;;4977426;28;20039;-19
2022/06/03 09:37:49;;;;;;;0.93;0.80;;;21.70;60.20;;;;;;4975936;28;20500;-19
2022/06/03 09:40:21;;;;;;;0.73;0.50;;;21.60;60.40;;;;;;4963088;28;20089;-19
2022/06/03 09:42:53;;;;;;;0.70;0.70;;;21.70;60.30;;;;;;4975932;28;20415;-18
2022/06/03 09:45:20;;;;;;;1.65;0.77;;;21.70;60.40;;;;;;4977126;28;20035;-19
2022/06/03 09:47:47;;;;;;;0.52;0.52;;;21.70;60.50;;;;;;4974950;28;20047;-18
2022/06/03 09:50:16;;;;;;;1.25;0.80;;;21.60;60.40;;;;;;4960199;28;20050;-19
2022/06/03 09:52:42;;;;;;;0.60;0.60;;;21.70;60.30;;;;;;4978356;28;20054;-19
2022/06/03 09:55:27;;;;;;;2.83;0.70;;;21.70;60.60;;;;;;4975101;28;20035;-20
2022/06/03 09:57:53;;;;;;;1.60;0.60;;;21.70;60.40;;;;;;4628370;28;10000235;-19
2022/06/03 10:00:21;;;;;;;0.75;0.60;;;21.70;60.80;;;;;;4956186;28;20054;-19
2022/06/03 10:02:47;;;;;;;1.08;0.93;;;21.70;60.60;;;;;;4972687;28;20500;-19
2022/06/03 10:05:16;;;;;;;0.63;0.63;;;21.60;60.70;;;;;;4960237;28;20416;-19
2022/06/03 10:07:42;;;;;;;0.68;0.57;;;21.70;60.40;;;;;;4969594;28;20078;-20
2022/06/03 10:13:00;;;;;;;0.90;0.82;;;21.70;60.70;;;;;;4970613;28;20543;-18
2022/06/03 10:15:41;;;;;;;0.50;0.50;;;21.70;60.80;;;;;;4972167;28;20053;-18
2022/06/03 10:18:20;;;;;;;2.63;0.80;;;21.70;60.50;;;;;;4966823;28;20055;-18
2022/06/03 10:20:47;;;;;;;0.80;0.80;;;21.70;61.80;;;;;;4989034;28;20043;-19
2022/06/03 10:23:12;;;;;;;1.02;0.60;;;21.70;62.50;;;;;;4971606;28;20117;-17
2022/06/03 10:25:40;;;;;;;3.30;1.10;;;21.70;62.60;;;;;;4966291;28;20055;-18
2022/06/03 10:28:09;;;;;;;1.05;0.95;;;21.70;63.00;;;;;;4969649;28;20391;-18
2022/06/03 10:30:36;;;;;;;1.10;1.00;;;21.70;63.60;;;;;;4973103;28;20133;-18
2022/06/03 10:33:05;;;;;;;1.00;0.80;;;21.70;63.50;;;;;;4969593;28;20064;-17
2022/06/03 10:35:36;;;;;;;0.80;0.80;;;21.70;63.50;;;;;;4974904;28;20635;-18
2022/06/03 10:38:03;;;;;;;0.63;0.63;;;21.70;63.20;;;;;;4988016;28;20070;-17
2022/06/03 10:40:29;;;;;;;2.75;0.80;;;21.70;63.00;;;;;;4974865;28;20039;-19
2022/06/03 10:42:57;;;;;;;1.48;0.70;;;21.70;63.30;;;;;;4973324;28;20054;-18
2022/06/03 10:45:33;;;;;;;0.73;0.70;;;21.70;63.60;;;;;;4975040;28;20680;-19
2022/06/03 10:47:59;;;;;;;2.40;0.75;;;21.70;63.70;;;;;;4969985;28;20340;-18
2022/06/03 10:50:38;;;;;;;0.80;0.80;;;21.80;64.10;;;;;;4985112;28;20042;-18
2022/06/03 11:01:42;;;;;;;2.08;0.98;;;21.70;64.10;;;;;;4967387;28;20093;-18
2022/06/03 11:04:07;;;;;;;1.02;0.70;;;21.70;64.30;;;;;;4971384;28;20047;-18
2022/06/03 11:06:35;;;;;;;1.08;1.08;;;21.80;64.70;;;;;;4955292;28;20039;-18
2022/06/03 11:09:01;;;;;;;1.30;0.70;;;21.80;64.70;;;;;;4972003;28;20078;-19
2022/06/03 11:11:47;;;;;;;0.98;0.80;;;21.80;64.40;;;;;;4973966;28;20054;-17
2022/06/03 11:14:27;;;;;;;1.00;0.93;;;21.80;65.00;;;;;;4969223;28;20050;-19
2022/06/03 11:16:53;;;;;;;1.15;1.00;;;21.80;64.90;;;;;;4964985;28;20126;-19
2022/06/03 11:19:19;;;;;;;0.90;0.90;;;21.80;64.90;;;;;;4964582;28;20161;-19
2022/06/03 11:21:45;;;;;;;0.73;0.73;;;21.80;65.30;;;;;;4970616;28;20539;-21
2022/06/03 11:24:10;;;;;;;1.33;0.70;;;21.90;65.80;;;;;;4965657;28;20420;-21
2022/06/03 11:26:38;;;;;;;1.63;0.68;;;21.80;64.70;;;;;;4966343;28;20046;-19
2022/06/03 11:29:12;;;;;;;0.80;0.80;;;21.90;64.50;;;;;;4972865;28;20058;-18
2022/06/03 11:31:41;;;;;;;0.80;0.80;;;21.90;64.30;;;;;;4963935;28;20057;-18
2022/06/03 11:34:17;;;;;;;1.08;0.80;;;21.90;64.40;;;;;;4965109;28;20286;-19
2022/06/03 11:36:48;;;;;;;0.50;0.50;;;21.90;63.40;;;;;;4970436;28;20077;-18
2022/06/03 11:39:18;;;;;;;3.35;0.70;;;21.90;63.10;;;;;;4969792;28;20057;-17
2022/06/03 11:41:54;;;;;;;0.70;0.70;;;21.90;64.20;;;;;;4965143;28;20053;-18
2022/06/03 11:44:31;;;;;;;0.70;0.70;;;21.90;65.30;;;;;;4972302;28;20050;-18
2022/06/03 11:47:16;;;;;;;1.10;1.00;;;21.90;65.30;;;;;;4965700;28;20054;-18
2022/06/03 11:49:42;;;;;;;1.13;1.00;;;21.80;66.30;;;;;;4964668;28;20070;-19
2022/06/03 11:52:08;;;;;;;0.90;0.80;;;21.90;65.70;;;;;;4965567;28;20050;-18
2022/06/03 11:54:33;;;;;;;3.33;0.60;;;21.90;65.90;;;;;;4980992;28;20030;-18
2022/06/03 11:57:02;;;;;;;3.88;0.73;;;21.90;65.20;;;;;;4972593;28;20519;-18
2022/06/03 11:59:27;;;;;;;0.50;0.50;;;21.90;64.90;;;;;;4970698;28;20047;-18
2022/06/03 12:02:08;;;;;;;0.80;0.80;;;22.00;64.80;;;;;;4971048;28;20058;-17
2022/06/03 12:04:56;;;;;;;2.92;0.85;;;22.00;65.80;;;;;;4972823;28;20125;-18
2022/06/03 12:07:22;;;;;;;2.08;0.70;;;22.00;66.20;;;;;;4970557;28;20047;-18
2022/06/03 12:10:03;;;;;;;3.00;0.88;;;22.00;65.60;;;;;;4965427;28;20564;-18
2022/06/03 12:15:34;;;;;;;0.90;0.75;;;22.00;65.60;;;;;;4965313;28;20448;-17
2022/06/03 12:18:11;;;;;;;1.00;0.82;;;22.00;65.80;;;;;;4968888;28;20131;-18
2022/06/03 12:20:47;;;;;;;1.08;0.98;;;22.00;65.80;;;;;;4964541;28;20054;-18
2022/06/03 12:23:12;;;;;;;0.70;0.70;;;22.00;66.20;;;;;;4983734;28;20054;-18
2022/06/03 12:25:40;;;;;;;0.93;0.82;;;22.00;66.30;;;;;;4970639;28;20061;-18
2022/06/03 12:28:13;;;;;;;0.82;0.82;;;22.00;66.20;;;;;;4970093;28;20105;-19
2022/06/03 12:30:47;;;;;;;1.00;0.98;;;22.00;65.90;;;;;;4970504;28;20047;-19
2022/06/03 12:33:31;;;;;;;0.90;0.90;;;22.00;66.30;;;;;;4968694;28;20065;-18
2022/06/03 12:36:05;;;;;;;0.88;0.88;;;22.00;66.40;;;;;;4971060;28;20110;-18
2022/06/03 12:38:32;;;;;;;;;;;22.00;66.50;;;;;;4975996;28;20058;-18
2022/06/03 12:41:00;;;;;;;0.80;0.80;;;22.00;66.40;;;;;;4972470;28;19941;-17
2022/06/03 12:43:29;;;;;;;1.85;1.00;;;22.00;66.40;;;;;;4970992;28;20103;-18
2022/06/03 12:46:07;;;;;;;0.77;0.60;;;22.00;66.60;;;;;;4971446;28;20369;-18
2022/06/03 12:48:54;;;;;;;0.70;0.70;;;22.00;66.60;;;;;;4966623;28;20309;-18
2022/06/03 12:51:29;;;;;;;0.70;0.70;;;22.00;66.70;;;;;;4955462;28;20432;-18
2022/06/03 12:54:07;;;;;;;0.80;0.80;;;22.00;66.70;;;;;;4969385;28;20054;-18
2022/06/03 12:56:51;;;;;;;0.85;0.85;;;22.00;66.70;;;;;;4998281;28;20042;-17
2022/06/03 12:59:49;;;;;;;1.13;1.00;;;22.00;67.10;;;;;;4958931;28;20034;-19
2022/06/03 13:02:19;;;;;;;0.60;0.60;;;22.00;66.70;;;;;;4962720;28;20058;-18
2022/06/03 13:04:53;;;;;;;1.67;0.90;;;22.00;67.10;;;;;;4971766;28;20539;-17
2022/06/03 13:07:30;;;;;;;1.40;0.85;;;22.00;66.90;;;;;;4971598;28;22247;-18
2022/06/03 13:10:02;;;;;;;0.68;0.68;;;22.00;66.80;;;;;;4984853;28;20796;-18
2022/06/03 13:12:45;;;;;;;1.13;1.02;;;22.00;67.00;;;;;;4976581;28;20067;-18
2022/06/03 13:15:19;;;;;;;1.73;0.90;;;22.00;66.90;;;;;;4974827;28;20038;-18
2022/06/03 13:20:35;;;;;;;0.70;0.70;;;22.10;67.30;;;;;;4975461;28;20036;-18
2022/06/03 13:23:00;;;;;;;0.93;0.80;;;22.10;67.40;;;;;;4973432;28;20043;-18
2022/06/03 13:25:29;;;;;;;0.98;0.93;;;22.10;67.70;;;;;;4971642;28;20043;-18
2022/06/03 13:28:34;;;;;;;1.23;0.70;;;22.00;67.00;;;;;;4971871;28;20159;-19
2022/06/03 13:31:04;;;;;;;1.58;0.90;;;22.00;67.60;;;;;;4965627;28;20058;-18
2022/06/03 13:33:29;;;;;;;1.50;0.95;;;22.00;67.60;;;;;;4972950;28;20097;-18
2022/06/03 13:36:03;;;;;;;2.78;1.00;;;22.10;67.30;;;;;;4973070;28;20039;-17
2022/06/03 13:38:41;;;;;;;1.33;0.95;;;22.10;68.30;;;;;;4971662;28;20059;-19
2022/06/03 13:44:10;;;;;;;3.30;1.50;;;22.10;68.10;;;;;;4965445;28;20089;-18
2022/06/03 13:46:36;;;;;;;1.05;0.95;;;22.10;67.40;;;;;;4969488;28;20074;-18
2022/06/03 13:49:24;;;;;;;0.90;0.90;;;22.10;67.00;;;;;;5002451;28;20043;-19
2022/06/03 13:51:52;;;;;;;0.70;0.70;;;22.10;67.50;;;;;;4966961;28;20583;-19
2022/06/03 13:54:22;;;;;;;0.88;0.88;;;22.20;67.70;;;;;;4970009;28;20075;-18
2022/06/03 13:57:03;;;;;;;0.75;0.75;;;22.10;67.80;;;;;;4964822;28;20054;-18
2022/06/03 13:59:33;;;;;;;0.82;0.82;;;22.10;67.90;;;;;;4983211;28;20051;-21
2022/06/03 14:01:59;;;;;;;2.05;1.08;;;22.20;67.40;;;;;;4970499;28;20051;-19
2022/06/03 14:04:29;;;;;;;0.88;0.88;;;22.20;68.30;;;;;;4972695;28;20118;-18
2022/06/03 14:07:02;;;;;;;1.60;0.80;;;22.10;67.80;;;;;;4971870;28;20049;-18
2022/06/03 14:09:30;;;;;;;1.58;1.00;;;22.10;68.30;;;;;;4969475;28;20050;-19
2022/06/03 14:12:08;;;;;;;0.70;0.70;;;22.10;68.00;;;;;;4971168;28;20138;-18
2022/06/03 14:14:55;;;;;;;1.40;1.00;;;22.20;68.30;;;;;;4966050;28;20047;-18
2022/06/03 14:17:46;;;;;;;0.80;0.80;;;22.20;67.50;;;;;;4970204;28;20039;-18
2022/06/03 14:20:21;;;;;;;1.92;1.00;;;22.20;67.50;;;;;;4970479;28;20104;-18
2022/06/03 14:23:03;;;;;;;0.75;0.75;;;22.30;68.50;;;;;;4965224;28;20043;-19